Jacksonville, FL

2:14 AM EST on February 10, 2016 (GMT -0500)
Cecil | | Change Station
CLOSE
Current Station
Airport
Location: Cecil Field,
Elevation: 82 ft
Nearby Weather Stations
Active Advisory: Freeze Warning, Freeze Watch Active Notice: Local Storm Report

Elev 82 ft 30.22 °N, 81.88 °W | Updated 24 minutes ago

Clear
Clear
34 °F
Feels Like 30 °F
N
5
Wind Variable Wind from SSW

Today
High -- | Low -- °F
--% Chance of Precip.
Yesterday
High -- | Low -- °F
Precip. -- in
Pressure 30.10 in
Visibility 10.0 miles
Clouds Clear
Windchill 30 °F
Dew Point 23 °F
Humidity 65%
Rainfall 0.00 in
Snow Depth Not available.
7:12 AM 6:11 PM
Waxing Crescent, 4% visible
METAR KVQQ 100650Z 21004KT 10SM CLR 01/M05 A3010
Pressure 30.10 in
Visibility 10.0 miles
Clouds Clear
Windchill 30 °F
Dew Point 23 °F
Humidity 65%
Rainfall 0.00 in
Snow Depth Not available.
7:12 AM 6:11 PM
Waxing Crescent, 4% visible
METAR KVQQ 100650Z 21004KT 10SM CLR 01/M05 A3010

10-Day Weather Forecast

Almanac

Astronomy

Feb. 10, 2016 Rise Set
Actual Time
Civil Twilight
Nautical Twilight
Astronomical Twilight
Moon
Length of Visible Light
Length of Day
Tomorrow will be .
, % of the Moon is Illuminated

Today's Extremes

State Highs State Lows

Community

WunderPhotos

Upload Photos

1,891,826 photos uploaded!

WunderBlog® & News

Nearby

Air Quality

  Air Quality AQ Index Pollutant
Not available.

Snow Depth

Station Depth Elevation

Earthquake Activity

City Distance Mag. Time & Date
Minimum magnitude displayed is 2.5.

Coastal Water Temperatures

Place Temperature

Stations

Nearby Weather Stations

Station Location Temp. Windchill Dew Point Humidity Wind Precip. Elev Updated Type
                   

Watches & Warnings

Freeze Warning, Freeze Watch
Issued: 10:00 PM EST Feb. 9, 2016 – National Weather Service

... Freeze warning remains in effect from 3 am to 9 am EST
Wednesday...
... Freeze watch remains in effect from late Wednesday night
through Thursday morning...

* temperature... lows early Wednesday and Thursday morning in the
upper 20s to near 30 inland and lower 30s at the coast with
wind chills in the lower 20s on Wednesday morning.

* Impacts... appropriate action should also be taken to ensure
tender vegetation and outdoor pets have adequate protection
from the cold temperatures.

Precautionary/preparedness actions...

A freeze warning means sub-freezing temperatures are imminent or
expected for at least 2 hours. Appropriate action should be
taken to ensure tender vegetation and outdoor pets have adequate
protection from the cold temperatures. Young children... the
elderly and the homeless are especially vulnerable to the cold.
Take measures to protect them.